Time;durP1;ratioP1;P1;durP2;ratioP2;P2;SDS_P1;SDS_P2;PMS_P1;PMS_P2;Temp;Humidity;BMP_temperature;BMP_pressure;BME280_temperature;BME280_humidity;BME280_pressure;Samples;Min_cycle;Max_cycle;Signal;HPM_P1;HPM_P2
2023/03/02 05:12:53;;;;;;;39.05;17.15;;;;;;;-2.05;100.00;100790.25;5559489;32;272198;-85
2023/03/02 05:15:57;;;;;;;39.42;18.20;;;;;;;-2.13;100.00;100791.94;5547157;32;33972;-85
2023/03/02 05:19:02;;;;;;;35.05;17.42;;;;;;;-2.11;100.00;100803.22;5546563;32;34460;-85
2023/03/02 05:22:05;;;;;;;32.78;16.55;;;;;;;-2.11;100.00;100795.41;5546555;32;33843;-85
2023/03/02 05:25:08;;;;;;;37.10;18.75;;;;;;;-2.05;100.00;100794.62;5550685;32;33695;-85
2023/03/02 05:28:11;;;;;;;31.67;16.17;;;;;;;-2.05;100.00;100797.22;5557544;32;34295;-84
2023/03/02 05:31:20;;;;;;;35.75;17.65;;;;;;;-1.99;100.00;100791.19;5554512;32;35067;-85
2023/03/02 05:34:23;;;;;;;30.98;16.65;;;;;;;-1.94;100.00;100803.37;5547586;32;34102;-85
2023/03/02 05:37:26;;;;;;;31.20;16.37;;;;;;;-1.90;100.00;100804.28;5548789;32;33992;-85
2023/03/02 05:40:29;;;;;;;33.65;16.80;;;;;;;-1.82;100.00;100810.41;5547338;32;34080;-85
2023/03/02 05:43:33;;;;;;;34.58;17.48;;;;;;;-1.73;100.00;100811.31;5547517;32;34633;-85
2023/03/02 05:46:36;;;;;;;33.05;17.10;;;;;;;-1.68;100.00;100815.72;5551885;32;33614;-84
2023/03/02 05:49:38;;;;;;;33.90;17.23;;;;;;;-1.60;100.00;100821.00;5557800;32;34265;-85
2023/03/02 05:52:41;;;;;;;37.65;17.80;;;;;;;-1.58;100.00;100818.38;5555985;32;33805;-85
2023/03/02 05:55:44;;;;;;;32.22;16.77;;;;;;;-1.56;100.00;100817.53;5558763;32;35243;-85
2023/03/02 05:58:47;;;;;;;33.92;17.37;;;;;;;-1.47;100.00;100816.75;5560808;32;35346;-85
2023/03/02 06:01:53;;;;;;;29.77;16.60;;;;;;;-1.29;100.00;100818.62;5560455;32;35128;-85
2023/03/02 06:04:56;;;;;;;30.45;16.77;;;;;;;-1.14;100.00;100824.75;5559181;32;34177;-85
2023/03/02 06:07:59;;;;;;;34.38;18.00;;;;;;;-0.99;100.00;100824.88;5559012;32;34465;-85
2023/03/02 06:11:03;;;;;;;31.12;17.70;;;;;;;-0.89;100.00;100825.78;5559496;32;34424;-85
2023/03/02 06:14:06;;;;;;;30.80;17.08;;;;;;;-0.80;100.00;100829.28;5559050;32;34817;-84
2023/03/02 06:17:09;;;;;;;29.12;16.48;;;;;;;-0.76;100.00;100831.91;5559112;32;33733;-85
2023/03/02 06:20:13;;;;;;;32.17;15.90;;;;;;;-0.64;100.00;100833.69;5557877;32;35156;-85
2023/03/02 06:23:16;;;;;;;36.17;17.05;;;;;;;-0.45;100.00;100838.97;5545936;32;35427;-85
2023/03/02 06:26:19;;;;;;;31.10;15.75;;;;;;;-0.31;100.00;100839.88;5536098;32;35207;-85
2023/03/02 06:29:22;;;;;;;28.70;15.77;;;;;;;-0.17;100.00;100837.31;5534760;32;35545;-89
2023/03/02 06:32:25;;;;;;;30.62;15.38;;;;;;;-0.06;100.00;100839.94;5535941;32;34278;-90
2023/03/02 06:35:28;;;;;;;32.63;16.02;;;;;;;0.09;100.00;100841.69;5524381;32;34016;-89
2023/03/02 06:38:31;;;;;;;27.55;15.98;;;;;;;0.19;100.00;100839.97;5527931;32;34182;-89
2023/03/02 06:41:34;;;;;;;31.30;17.30;;;;;;;0.28;100.00;100849.53;5527104;32;34282;-87
2023/03/02 06:44:37;;;;;;;30.48;17.37;;;;;;;0.40;100.00;100848.66;5526531;32;34230;-84
2023/03/02 06:47:40;;;;;;;31.27;16.35;;;;;;;0.60;100.00;100848.66;5526254;32;34010;-84
2023/03/02 06:50:43;;;;;;;31.60;16.80;;;;;;;0.71;100.00;100848.66;5542018;32;34854;-86
2023/03/02 06:53:46;;;;;;;31.62;16.42;;;;;;;0.93;100.00;100856.47;5545700;32;33662;-83
2023/03/02 06:56:48;;;;;;;32.58;17.05;;;;;;;1.12;100.00;100859.03;5559172;32;34170;-83
2023/03/02 06:59:51;;;;;;;30.80;16.60;;;;;;;1.18;100.00;100848.56;5537966;32;34587;-86
2023/03/02 07:02:55;;;;;;;26.62;16.05;;;;;;;1.30;100.00;100856.34;5545064;32;34294;-85
2023/03/02 07:05:59;;;;;;;29.73;16.92;;;;;;;1.39;100.00;100855.44;5524040;32;34321;-85
2023/03/02 07:09:01;;;;;;;30.92;17.40;;;;;;;1.51;100.00;100856.28;5521262;32;35953;-86
2023/03/02 07:12:05;;;;;;;33.08;16.62;;;;;;;1.68;100.00;100853.56;5518444;32;35026;-86
2023/03/02 07:15:10;;;;;;;30.65;16.42;;;;;;;1.83;100.00;100855.25;5523327;32;34096;-87
2023/03/02 07:18:13;;;;;;;29.87;16.85;;;;;;;2.01;100.00;100854.28;5525153;32;33968;-86
2023/03/02 07:21:17;;;;;;;34.20;17.15;;;;;;;2.23;100.00;100856.72;5549320;32;33738;-86
2023/03/02 07:24:21;;;;;;;32.10;15.75;;;;;;;2.42;97.11;100854.84;5543236;32;34220;-86
2023/03/02 07:27:23;;;;;;;27.77;16.12;;;;;;;2.60;94.47;100858.16;5535943;32;33609;-86
2023/03/02 07:30:27;;;;;;;29.08;15.82;;;;;;;2.98;90.06;100856.94;5530399;32;33874;-87
2023/03/02 07:33:30;;;;;;;27.42;14.45;;;;;;;3.67;88.67;100864.03;5528592;32;34121;-84
2023/03/02 07:36:33;;;;;;;24.90;14.50;;;;;;;4.28;80.38;100856.16;5531026;32;34955;-84
2023/03/02 07:39:36;;;;;;;25.42;15.23;;;;;;;7.24;69.27;100850.63;5534751;32;33994;-86
2023/03/02 07:42:39;;;;;;;20.75;13.00;;;;;;;9.34;60.75;100850.13;5523274;32;33842;-85
2023/03/02 07:45:41;;;;;;;21.02;12.77;;;;;;;10.33;46.44;100848.94;5531163;32;34155;-84
2023/03/02 07:48:44;;;;;;;25.80;13.27;;;;;;;11.96;42.96;100842.69;5531914;32;34351;-84
2023/03/02 07:51:47;;;;;;;24.02;13.35;;;;;;;14.60;36.57;100838.56;5537579;32;34615;-85
2023/03/02 07:54:50;;;;;;;23.95;13.85;;;;;;;15.41;32.32;100838.19;5532651;32;34386;-84
2023/03/02 07:57:53;;;;;;;18.65;12.27;;;;;;;14.66;33.27;100840.00;5535311;32;33921;-85
2023/03/02 08:00:56;;;;;;;19.35;12.88;;;;;;;18.88;30.23;100832.12;5543322;32;33810;-85
2023/03/02 08:03:59;;;;;;;20.88;12.65;;;;;;;21.70;24.64;100836.75;5532837;32;33637;-87
2023/03/02 08:07:01;;;;;;;17.92;11.57;;;;;;;22.72;23.16;100834.69;5546945;32;34807;-86
2023/03/02 08:10:05;;;;;;;16.77;11.60;;;;;;;23.96;21.19;100835.47;5550605;32;33871;-87
2023/03/02 08:13:08;;;;;;;15.27;11.43;;;;;;;25.05;20.02;100839.97;5534981;32;33627;-87
2023/03/02 08:16:14;;;;;;;19.85;11.70;;;;;;;25.17;20.38;100840.53;5531146;32;33878;-85
2023/03/02 08:19:18;;;;;;;16.40;11.77;;;;;;;26.77;17.95;100847.03;5534002;32;33750;-87
2023/03/02 08:22:21;;;;;;;15.43;11.32;;;;;;;28.83;16.37;100848.88;5539969;32;32491;-83
2023/03/02 08:25:24;;;;;;;14.60;11.57;;;;;;;29.00;16.30;100848.72;5536094;32;34030;-85
2023/03/02 08:28:27;;;;;;;15.10;8.48;;;;;;;29.11;15.17;100858.34;5537276;32;33579;-85
2023/03/02 08:31:30;;;;;;;11.80;9.30;;;;;;;27.78;15.06;100854.75;5529332;32;35097;-85
2023/03/02 08:34:33;;;;;;;15.23;10.25;;;;;;;25.55;16.24;100851.09;5530314;32;34373;-88
2023/03/02 08:37:36;;;;;;;12.55;9.85;;;;;;;26.40;16.18;100846.53;5533564;32;33715;-85
2023/03/02 08:40:39;;;;;;;14.68;9.98;;;;;;;24.49;17.11;100841.06;5532359;32;34522;-84
2023/03/02 08:43:42;;;;;;;14.73;9.90;;;;;;;25.89;17.19;100838.47;5531014;32;33871;-86
2023/03/02 08:46:45;;;;;;;13.90;9.38;;;;;;;25.94;16.65;100841.53;5529422;32;33795;-85
2023/03/02 08:49:49;;;;;;;15.25;10.45;;;;;;;21.47;19.03;100838.78;5529143;32;34029;-85
2023/03/02 08:52:52;;;;;;;13.48;10.25;;;;;;;23.81;17.65;100828.88;5530136;32;34526;-90
2023/03/02 08:55:55;;;;;;;17.45;10.30;;;;;;;24.20;17.64;100833.19;5529685;32;33920;-90
2023/03/02 08:59:00;;;;;;;13.85;9.88;;;;;;;25.41;16.64;100828.09;5530237;32;34667;-90
2023/03/02 09:02:03;;;;;;;13.07;10.00;;;;;;;23.75;17.31;100829.47;5533576;32;33551;-86
2023/03/02 09:05:07;;;;;;;15.10;10.20;;;;;;;23.25;18.30;100829.72;5537317;32;35236;-84
2023/03/02 09:08:10;;;;;;;12.55;9.55;;;;;;;22.40;19.40;100826.84;5536367;32;34032;-84
2023/03/02 09:11:13;;;;;;;15.13;9.27;;;;;;;19.90;20.90;100817.81;5541157;32;34085;-83
2023/03/02 09:14:15;;;;;;;12.40;9.65;;;;;;;17.99;22.91;100811.88;5526774;32;33629;-85
2023/03/02 09:17:19;;;;;;;14.93;10.07;;;;;;;16.36;25.21;100816.97;5519198;32;34046;-85
2023/03/02 09:20:22;;;;;;;14.32;10.10;;;;;;;14.59;27.87;100809.28;5529950;32;34821;-84
2023/03/02 09:23:26;;;;;;;13.00;9.90;;;;;;;14.47;28.40;100798.38;5530650;32;33928;-84
2023/03/02 09:26:29;;;;;;;12.80;10.13;;;;;;;13.14;30.24;100799.56;5531750;32;34264;-82
2023/03/02 09:29:32;;;;;;;15.15;9.85;;;;;;;13.54;29.94;100801.00;5532538;32;34210;-83
2023/03/02 09:32:34;;;;;;;16.17;10.45;;;;;;;13.63;30.16;100800.47;5531856;32;34340;-84
2023/03/02 09:35:38;;;;;;;13.65;9.93;;;;;;;13.38;30.20;100792.97;5533730;32;34090;-84
2023/03/02 09:38:40;;;;;;;17.40;10.18;;;;;;;12.72;31.74;100793.75;5543421;32;34487;-84
2023/03/02 09:42:02;;;;;;;15.98;9.70;;;;;;;12.87;31.09;100794.75;5538817;32;34185;-83
2023/03/02 09:45:20;;;;;;;15.10;9.90;;;;;;;13.48;31.35;100788.91;5529617;32;34938;-84
2023/03/02 09:48:34;;;;;;;14.95;9.48;;;;;;;12.75;31.56;100787.41;5531019;32;33849;-84
2023/03/02 09:52:14;;;;;;;14.52;8.98;;;;;;;13.64;30.62;100788.91;5533189;32;34826;-84
2023/03/02 09:55:21;;;;;;;13.23;8.83;;;;;;;14.05;30.76;100779.47;5537892;32;34274;-82
2023/03/02 09:58:28;;;;;;;15.90;9.48;;;;;;;14.04;29.97;100784.91;5520429;32;34250;-84
2023/03/02 10:01:38;;;;;;;14.95;9.57;;;;;;;13.03;31.36;100777.97;5529041;32;34565;-84
2023/03/02 10:04:51;;;;;;;14.20;9.45;;;;;;;13.51;31.54;100774.50;5530634;32;33613;-89
2023/03/02 10:07:55;;;;;;;19.15;9.27;;;;;;;14.60;30.36;100769.16;5540956;32;34680;-84
2023/03/02 10:11:19;;;;;;;16.48;8.30;;;;;;;15.21;31.41;100773.50;5525951;32;35923;-85
2023/03/02 10:14:29;;;;;;;14.43;8.20;;;;;;;15.09;32.11;100767.12;5535125;32;33948;-85
2023/03/02 10:17:51;;;;;;;11.30;7.60;;;;;;;15.38;30.54;100766.22;5553755;32;34381;-85
2023/03/02 10:21:02;;;;;;;15.70;8.18;;;;;;;15.28;31.16;100763.28;5558192;32;33943;-85
2023/03/02 10:24:35;;;;;;;14.05;8.65;;;;;;;15.21;28.93;100765.47;5546012;32;34350;-84
2023/03/02 10:27:42;;;;;;;14.52;8.93;;;;;;;15.48;28.64;100762.00;5549391;32;34130;-84
2023/03/02 10:30:54;;;;;;;15.82;8.95;;;;;;;15.77;29.94;100762.78;5546858;32;34232;-85
2023/03/02 10:33:59;;;;;;;14.95;8.60;;;;;;;15.99;27.81;100760.53;5541364;32;35360;-86
2023/03/02 10:37:13;;;;;;;11.93;8.20;;;;;;;16.26;29.92;100765.00;5545623;32;34764;-86
2023/03/02 10:40:38;;;;;;;13.25;8.23;;;;;;;16.07;30.55;100757.34;5545388;32;34801;-86
2023/03/02 10:43:45;;;;;;;10.90;7.90;;;;;;;15.92;28.59;100754.72;5532562;32;33958;-86
2023/03/02 10:46:47;;;;;;;11.98;7.62;;;;;;;16.46;27.48;100750.25;5531093;32;34053;-85
2023/03/02 10:49:53;;;;;;;10.82;7.57;;;;;;;16.79;29.18;100750.69;5532673;32;34973;-85
2023/03/02 10:52:56;;;;;;;11.68;6.97;;;;;;;16.69;28.16;100745.97;5532396;32;34328;-87
2023/03/02 10:56:04;;;;;;;13.23;7.18;;;;;;;17.34;27.42;100737.00;5524574;32;34061;-85
2023/03/02 10:59:45;;;;;;;14.18;7.18;;;;;;;19.82;23.56;100734.16;5531023;32;34050;-86
2023/03/02 11:02:59;;;;;;;12.73;7.20;;;;;;;23.27;20.37;100730.25;5542983;32;33973;-86
2023/03/02 11:06:18;;;;;;;9.95;6.50;;;;;;;20.17;24.64;100733.88;5541638;32;33843;-87
2023/03/02 11:09:21;;;;;;;11.38;7.57;;;;;;;18.56;27.38;100716.28;5538550;32;33874;-86
2023/03/02 11:12:37;;;;;;;15.98;7.40;;;;;;;17.20;27.59;100716.59;5547230;32;34091;-86
2023/03/02 11:15:45;;;;;;;8.73;6.53;;;;;;;16.82;28.33;100713.84;5532673;32;34120;-87
2023/03/02 11:18:59;;;;;;;12.77;7.25;;;;;;;16.39;28.55;100708.81;5533761;32;33868;-87
2023/03/02 11:22:40;;;;;;;11.65;8.10;;;;;;;17.03;27.59;100710.59;5533924;32;35050;-86
2023/03/02 11:25:49;;;;;;;14.75;7.37;;;;;;;19.28;26.31;100702.63;5501199;32;33502;-87
2023/03/02 11:28:58;;;;;;;11.55;7.30;;;;;;;21.66;24.06;100700.31;5523788;32;33793;-87
2023/03/02 11:32:06;;;;;;;12.40;7.45;;;;;;;21.08;24.44;100685.72;5529139;32;34194;-87
2023/03/02 11:35:13;;;;;;;11.52;7.32;;;;;;;18.39;28.49;100680.03;5540176;32;34382;-87
2023/03/02 11:38:26;;;;;;;17.90;7.85;;;;;;;16.92;30.90;100689.91;5531624;32;34189;-87
2023/03/02 11:41:34;;;;;;;11.60;7.68;;;;;;;15.65;33.11;100694.06;5527706;32;33502;-86
2023/03/02 11:44:37;;;;;;;11.55;7.82;;;;;;;13.85;36.32;100680.16;5523376;32;34566;-87
2023/03/02 11:48:25;;;;;;;12.25;8.45;;;;;;;14.06;37.02;100678.97;5531170;32;33890;-87
2023/03/02 11:51:33;;;;;;;12.77;8.15;;;;;;;15.56;33.44;100682.16;5502805;32;35177;-86
2023/03/02 11:54:44;;;;;;;11.23;8.23;;;;;;;15.10;34.39;100667.31;5533395;32;33861;-86
2023/03/02 11:57:58;;;;;;;13.18;8.43;;;;;;;14.26;36.69;100667.97;5528726;32;35005;-86
2023/03/02 12:01:03;;;;;;;13.62;8.00;;;;;;;14.78;38.05;100656.88;5522822;32;33808;-87
2023/03/02 12:04:09;;;;;;;12.40;7.57;;;;;;;13.95;40.00;100653.81;5535397;32;34824;-87
2023/03/02 12:07:18;;;;;;;10.85;8.35;;;;;;;13.34;42.34;100653.75;5530182;32;34829;-90
2023/03/02 12:10:30;;;;;;;10.63;6.93;;;;;;;13.88;41.01;100653.31;5532041;32;33919;-87
2023/03/02 12:13:38;;;;;;;11.10;7.78;;;;;;;13.24;42.25;100655.19;5529500;32;33651;-86
2023/03/02 12:16:42;;;;;;;11.88;7.28;;;;;;;12.76;43.87;100645.38;5530940;32;34498;-87
2023/03/02 12:19:46;;;;;;;11.27;7.35;;;;;;;13.18;43.54;100637.78;5530410;32;33328;-87
2023/03/02 12:22:49;;;;;;;10.23;7.22;;;;;;;13.29;43.03;100651.34;5526872;32;34828;-87
2023/03/02 12:26:24;;;;;;;12.00;7.50;;;;;;;12.89;44.66;100641.13;5528763;32;34135;-86
2023/03/02 12:29:39;;;;;;;10.55;7.50;;;;;;;13.03;44.98;100642.16;5529748;32;34674;-86
2023/03/02 12:33:01;;;;;;;9.35;6.47;;;;;;;12.99;45.66;100644.13;5531682;32;34484;-85
2023/03/02 12:36:28;;;;;;;14.63;7.28;;;;;;;12.75;46.32;100635.69;5543546;32;34184;-84
2023/03/02 12:40:19;;;;;;;11.00;7.37;;;;;;;12.84;46.27;100637.84;5537483;32;34418;-86
2023/03/02 12:43:28;;;;;;;;;;;;;;;12.19;48.14;100636.84;5532216;32;33929;-85
2023/03/02 12:46:35;;;;;;;10.23;6.40;;;;;;;12.16;48.03;100629.00;5532265;32;34655;-86
2023/03/02 12:49:49;;;;;;;10.25;7.07;;;;;;;12.26;48.51;100626.72;5528112;32;33836;-85
2023/03/02 12:53:12;;;;;;;11.88;7.22;;;;;;;11.93;48.56;100628.38;5535079;32;33825;-86
2023/03/02 12:56:25;;;;;;;9.35;7.18;;;;;;;12.20;48.21;100616.41;5528854;32;34162;-85
2023/03/02 12:59:29;;;;;;;11.40;7.18;;;;;;;12.40;48.02;100624.22;5527545;32;33873;-85
2023/03/02 13:02:34;;;;;;;9.68;6.70;;;;;;;12.73;46.73;100619.78;5528471;32;34292;-86
2023/03/02 13:05:36;;;;;;;9.40;7.00;;;;;;;12.46;47.25;100607.06;5526148;32;33918;-85
2023/03/02 13:08:43;;;;;;;10.32;6.82;;;;;;;12.56;46.90;100601.25;5528723;32;33898;-85
2023/03/02 13:11:48;;;;;;;12.02;7.03;;;;;;;12.34;46.50;100603.25;5523006;32;34056;-86
2023/03/02 13:14:54;;;;;;;12.20;7.25;;;;;;;12.21;46.81;100597.72;5530694;32;33440;-84
2023/03/02 13:17:58;;;;;;;10.77;6.00;;;;;;;12.02;47.40;100596.94;5529577;32;34697;-85
2023/03/02 13:21:04;;;;;;;10.68;6.65;;;;;;;12.21;46.95;100592.41;5528921;32;35135;-85
2023/03/02 13:24:42;;;;;;;12.35;6.97;;;;;;;12.07;47.58;100593.13;5527194;32;34194;-85
2023/03/02 13:27:51;;;;;;;10.82;7.07;;;;;;;12.35;47.04;100591.69;5526345;32;34061;-84
2023/03/02 13:30:58;;;;;;;9.07;6.70;;;;;;;12.00;46.76;100592.56;5528449;32;33978;-89
2023/03/02 13:34:01;;;;;;;10.45;6.53;;;;;;;12.13;46.60;100584.00;5530569;32;33735;-86
2023/03/02 13:37:19;;;;;;;10.45;6.62;;;;;;;11.93;47.33;100585.00;5533793;32;34394;-85
2023/03/02 13:40:32;;;;;;;9.90;6.87;;;;;;;12.42;46.45;100572.72;5534686;32;33877;-85
2023/03/02 13:43:39;;;;;;;11.10;6.32;;;;;;;12.02;47.24;100573.88;5537056;32;34675;-85
2023/03/02 13:46:42;;;;;;;10.18;6.12;;;;;;;11.97;47.21;100567.97;5533396;32;34150;-86
2023/03/02 13:49:44;;;;;;;9.40;6.43;;;;;;;12.21;46.83;100568.47;5532716;32;35229;-86
2023/03/02 13:52:49;;;;;;;10.50;6.60;;;;;;;12.65;49.22;100564.34;5532081;32;34293;-86
2023/03/02 13:55:53;;;;;;;11.20;6.75;;;;;;;12.68;48.00;100560.66;5534532;32;34595;-85
2023/03/02 13:58:56;;;;;;;11.52;7.20;;;;;;;12.36;47.25;100556.16;5537531;32;34819;-84
2023/03/02 14:01:59;;;;;;;11.02;6.93;;;;;;;12.41;46.81;100553.22;5535659;32;33558;-85
2023/03/02 14:05:05;;;;;;;11.38;6.40;;;;;;;12.16;47.53;100543.09;5533977;32;33986;-84
2023/03/02 14:08:08;;;;;;;10.10;6.70;;;;;;;12.13;47.59;100536.97;5533011;32;34217;-84
2023/03/02 14:11:14;;;;;;;15.02;7.25;;;;;;;12.15;47.67;100536.88;5523876;32;34057;-84
2023/03/02 14:14:19;;;;;;;11.50;6.82;;;;;;;12.15;47.95;100536.00;5514965;32;34676;-85
2023/03/02 14:17:24;;;;;;;11.90;6.62;;;;;;;12.15;47.67;100528.91;5531158;32;34503;-84
2023/03/02 14:20:29;;;;;;;9.88;6.62;;;;;;;12.16;48.01;100521.81;5534126;32;33993;-83
2023/03/02 14:23:32;;;;;;;9.05;6.45;;;;;;;12.17;47.70;100519.03;5527887;32;34443;-84
2023/03/02 14:26:34;;;;;;;9.85;5.82;;;;;;;11.95;47.21;100514.84;5518290;32;34828;-83
2023/03/02 14:29:38;;;;;;;8.57;5.95;;;;;;;12.05;48.24;100509.94;5536805;32;34237;-84
2023/03/02 14:32:41;;;;;;;7.90;5.68;;;;;;;12.20;47.89;100510.91;5538512;32;34079;-84
2023/03/02 14:35:44;;;;;;;8.35;6.03;;;;;;;12.12;47.41;100511.31;5531839;32;33818;-84
2023/03/02 14:38:46;;;;;;;8.35;5.87;;;;;;;12.15;47.99;100520.06;5524772;32;35181;-83
2023/03/02 14:41:51;;;;;;;10.00;6.45;;;;;;;12.19;47.58;100518.97;5530502;32;33654;-86
2023/03/02 14:44:56;;;;;;;9.27;6.20;;;;;;;12.10;47.52;100517.66;5531366;32;33892;-84
2023/03/02 14:48:00;;;;;;;9.18;5.68;;;;;;;11.97;47.98;100507.66;5531700;32;33812;-85
2023/03/02 14:51:03;;;;;;;10.50;5.85;;;;;;;11.96;48.24;100507.72;5532353;32;34828;-84
2023/03/02 14:54:13;;;;;;;9.10;5.93;;;;;;;11.93;48.35;100499.94;5536711;32;35364;-84
2023/03/02 14:57:21;;;;;;;8.45;5.68;;;;;;;12.02;48.44;100504.75;5538672;32;33826;-84
2023/03/02 15:00:25;;;;;;;7.12;5.18;;;;;;;11.88;48.05;100497.53;5533692;32;34229;-84
2023/03/02 15:03:29;;;;;;;10.05;5.82;;;;;;;11.77;48.81;100498.06;5536970;32;33982;-87
2023/03/02 15:06:39;;;;;;;8.95;5.70;;;;;;;11.81;48.35;100498.75;5533722;32;34268;-89
2023/03/02 15:09:44;;;;;;;8.43;5.72;;;;;;;11.80;48.22;100495.28;5527470;32;33810;-85
2023/03/02 15:12:47;;;;;;;9.25;5.93;;;;;;;11.57;48.65;100489.34;5531247;32;33645;-84
2023/03/02 15:15:51;;;;;;;9.00;5.87;;;;;;;11.58;49.08;100498.19;5531507;32;34882;-84
2023/03/02 15:18:55;;;;;;;10.30;6.32;;;;;;;11.62;49.16;100498.91;5529705;32;33627;-84
2023/03/02 15:22:00;;;;;;;13.40;5.70;;;;;;;11.53;49.33;100495.78;5531535;32;33936;-86
2023/03/02 15:25:03;;;;;;;9.88;6.18;;;;;;;11.53;49.54;100495.78;5542322;32;34524;-86
2023/03/02 15:28:06;;;;;;;8.77;6.05;;;;;;;11.45;49.38;100501.50;5540687;32;33955;-85
2023/03/02 15:31:13;;;;;;;9.65;5.85;;;;;;;11.39;49.63;100499.16;5530403;32;34824;-86
2023/03/02 15:34:16;;;;;;;9.43;5.82;;;;;;;11.35;50.21;100502.88;5532767;32;34059;-86
2023/03/02 15:37:19;;;;;;;12.15;6.40;;;;;;;11.59;49.64;100500.78;5530555;32;34821;-86
2023/03/02 15:40:24;;;;;;;9.73;5.30;;;;;;;11.42;49.66;100501.63;5533892;32;32706;-85
2023/03/02 15:43:27;;;;;;;10.68;5.90;;;;;;;11.51;49.20;100502.97;5532667;32;34262;-86
2023/03/02 15:46:30;;;;;;;9.23;5.95;;;;;;;11.22;50.15;100501.81;5546784;32;33986;-86
2023/03/02 15:49:33;;;;;;;9.10;5.65;;;;;;;11.03;50.69;100506.22;5544375;32;34030;-87
2023/03/02 15:52:35;;;;;;;9.23;5.97;;;;;;;10.96;51.29;100512.78;5536066;32;34610;-86
2023/03/02 15:55:41;;;;;;;12.50;6.10;;;;;;;10.84;51.69;100505.41;5532966;32;34614;-87
2023/03/02 15:58:49;;;;;;;9.40;5.90;;;;;;;10.72;52.22;100509.53;5534488;32;33987;-87
2023/03/02 16:01:52;;;;;;;8.82;6.00;;;;;;;10.63;52.56;100509.06;5535286;32;34657;-86
2023/03/02 16:04:55;;;;;;;9.02;5.80;;;;;;;10.51;52.68;100509.59;5532404;32;34395;-84
2023/03/02 16:07:58;;;;;;;11.35;6.32;;;;;;;10.42;53.14;100510.03;5534465;32;34225;-84
2023/03/02 16:11:04;;;;;;;10.30;5.95;;;;;;;10.32;53.43;100506.94;5534025;32;33915;-85
2023/03/02 16:14:07;;;;;;;8.57;5.90;;;;;;;10.30;53.54;100506.16;5535631;32;34675;-85
2023/03/02 16:17:12;;;;;;;10.43;6.12;;;;;;;10.17;54.01;100509.38;5535030;32;34812;-85
2023/03/02 16:20:15;;;;;;;8.75;5.60;;;;;;;9.98;54.85;100512.88;5538601;32;33925;-85
2023/03/02 16:23:19;;;;;;;7.85;6.03;;;;;;;10.05;54.62;100518.75;5537858;32;34077;-85
2023/03/02 16:26:21;;;;;;;16.62;6.57;;;;;;;9.87;54.89;100520.44;5534369;32;33763;-85
2023/03/02 16:29:24;;;;;;;8.05;5.80;;;;;;;9.66;56.03;100511.66;5534625;32;33618;-85
2023/03/02 16:32:28;;;;;;;8.57;5.82;;;;;;;9.53;56.79;100514.84;5535031;32;34354;-85
2023/03/02 16:35:33;;;;;;;13.82;5.87;;;;;;;9.50;56.46;100512.31;5534571;32;34166;-85
2023/03/02 16:38:37;;;;;;;11.65;6.37;;;;;;;9.29;57.27;100514.06;5534820;32;34966;-85
2023/03/02 16:41:42;;;;;;;12.07;6.40;;;;;;;9.19;58.27;100512.75;5537180;32;33865;-85
2023/03/02 16:44:47;;;;;;;15.95;6.65;;;;;;;9.05;58.83;100523.91;5535001;32;34217;-85
2023/03/02 16:47:50;;;;;;;13.90;6.85;;;;;;;9.01;59.36;100528.47;5535380;32;33758;-85
2023/03/02 16:50:55;;;;;;;9.88;6.05;;;;;;;8.86;59.96;100527.31;5534492;32;34174;-85
